sensor_id;sensor_type;location;lat;lon;timestamp;P1;durP1;ratioP1;P2;durP2;ratioP2
21215;SDS011;10765;50.954;5.322;2023-03-18T00:01:29;12.07;;;8.10;;
21215;SDS011;10765;50.954;5.322;2023-03-18T00:03:56;10.43;;;7.90;;
21215;SDS011;10765;50.954;5.322;2023-03-18T00:06:23;10.27;;;8.40;;
21215;SDS011;10765;50.954;5.322;2023-03-18T00:08:51;10.07;;;8.63;;
21215;SDS011;10765;50.954;5.322;2023-03-18T00:11:18;11.03;;;8.00;;
21215;SDS011;10765;50.954;5.322;2023-03-18T00:13:46;12.07;;;9.47;;
21215;SDS011;10765;50.954;5.322;2023-03-18T00:16:14;14.30;;;9.93;;
21215;SDS011;10765;50.954;5.322;2023-03-18T00:18:43;12.77;;;10.30;;
21215;SDS011;10765;50.954;5.322;2023-03-18T00:21:10;11.90;;;10.23;;
21215;SDS011;10765;50.954;5.322;2023-03-18T00:23:37;16.10;;;11.80;;
21215;SDS011;10765;50.954;5.322;2023-03-18T00:26:04;14.40;;;11.50;;
21215;SDS011;10765;50.954;5.322;2023-03-18T00:28:32;12.20;;;10.87;;
21215;SDS011;10765;50.954;5.322;2023-03-18T00:31:01;15.90;;;11.83;;
21215;SDS011;10765;50.954;5.322;2023-03-18T00:33:32;15.67;;;12.37;;
21215;SDS011;10765;50.954;5.322;2023-03-18T00:36:01;14.13;;;12.20;;
21215;SDS011;10765;50.954;5.322;2023-03-18T00:38:28;15.23;;;11.77;;
21215;SDS011;10765;50.954;5.322;2023-03-18T00:40:55;13.87;;;12.10;;
21215;SDS011;10765;50.954;5.322;2023-03-18T00:43:35;15.43;;;12.80;;
21215;SDS011;10765;50.954;5.322;2023-03-18T00:46:10;15.23;;;12.60;;
21215;SDS011;10765;50.954;5.322;2023-03-18T00:48:38;14.33;;;12.40;;
21215;SDS011;10765;50.954;5.322;2023-03-18T00:51:06;14.53;;;12.60;;
21215;SDS011;10765;50.954;5.322;2023-03-18T00:53:35;15.47;;;12.07;;
21215;SDS011;10765;50.954;5.322;2023-03-18T00:56:03;14.43;;;12.90;;
21215;SDS011;10765;50.954;5.322;2023-03-18T00:58:30;14.07;;;12.13;;
21215;SDS011;10765;50.954;5.322;2023-03-18T01:00:57;20.63;;;16.57;;
21215;SDS011;10765;50.954;5.322;2023-03-18T01:03:24;15.50;;;13.90;;
21215;SDS011;10765;50.954;5.322;2023-03-18T01:05:51;16.10;;;12.83;;
21215;SDS011;10765;50.954;5.322;2023-03-18T01:08:20;17.43;;;14.30;;
21215;SDS011;10765;50.954;5.322;2023-03-18T01:10:47;15.00;;;13.50;;
21215;SDS011;10765;50.954;5.322;2023-03-18T01:13:14;15.23;;;13.33;;
21215;SDS011;10765;50.954;5.322;2023-03-18T01:15:41;14.67;;;13.17;;
21215;SDS011;10765;50.954;5.322;2023-03-18T01:18:08;15.57;;;13.37;;
21215;SDS011;10765;50.954;5.322;2023-03-18T01:20:37;15.33;;;13.63;;
21215;SDS011;10765;50.954;5.322;2023-03-18T01:23:04;17.33;;;14.10;;
21215;SDS011;10765;50.954;5.322;2023-03-18T01:25:33;16.27;;;13.97;;
21215;SDS011;10765;50.954;5.322;2023-03-18T01:28:00;15.43;;;13.23;;
21215;SDS011;10765;50.954;5.322;2023-03-18T01:30:28;16.50;;;13.63;;
21215;SDS011;10765;50.954;5.322;2023-03-18T01:32:55;16.13;;;13.97;;
21215;SDS011;10765;50.954;5.322;2023-03-18T01:35:22;14.80;;;12.83;;
21215;SDS011;10765;50.954;5.322;2023-03-18T01:37:51;13.67;;;12.20;;
21215;SDS011;10765;50.954;5.322;2023-03-18T01:40:18;16.63;;;13.33;;
21215;SDS011;10765;50.954;5.322;2023-03-18T01:42:55;16.00;;;12.87;;
21215;SDS011;10765;50.954;5.322;2023-03-18T01:45:24;15.23;;;13.63;;
21215;SDS011;10765;50.954;5.322;2023-03-18T01:47:53;14.40;;;12.90;;
21215;SDS011;10765;50.954;5.322;2023-03-18T01:50:22;15.87;;;13.30;;
21215;SDS011;10765;50.954;5.322;2023-03-18T01:53:02;16.53;;;13.10;;
21215;SDS011;10765;50.954;5.322;2023-03-18T01:55:31;16.30;;;12.43;;
21215;SDS011;10765;50.954;5.322;2023-03-18T01:58:02;14.13;;;12.77;;
21215;SDS011;10765;50.954;5.322;2023-03-18T02:00:31;13.67;;;12.17;;
21215;SDS011;10765;50.954;5.322;2023-03-18T02:03:00;16.30;;;13.20;;
21215;SDS011;10765;50.954;5.322;2023-03-18T02:05:28;16.27;;;13.30;;
21215;SDS011;10765;50.954;5.322;2023-03-18T02:07:56;14.63;;;12.93;;
21215;SDS011;10765;50.954;5.322;2023-03-18T02:10:27;15.70;;;13.50;;
21215;SDS011;10765;50.954;5.322;2023-03-18T02:12:57;14.90;;;12.57;;
21215;SDS011;10765;50.954;5.322;2023-03-18T02:15:28;15.10;;;12.23;;
21215;SDS011;10765;50.954;5.322;2023-03-18T02:17:57;16.03;;;13.70;;
21215;SDS011;10765;50.954;5.322;2023-03-18T02:20:30;15.40;;;13.70;;
21215;SDS011;10765;50.954;5.322;2023-03-18T02:23:08;14.97;;;13.37;;
21215;SDS011;10765;50.954;5.322;2023-03-18T02:25:45;14.17;;;12.67;;
21215;SDS011;10765;50.954;5.322;2023-03-18T02:28:20;15.53;;;13.77;;
21215;SDS011;10765;50.954;5.322;2023-03-18T02:30:50;15.60;;;13.67;;
21215;SDS011;10765;50.954;5.322;2023-03-18T02:33:20;16.00;;;13.03;;
21215;SDS011;10765;50.954;5.322;2023-03-18T02:35:51;19.07;;;14.43;;
21215;SDS011;10765;50.954;5.322;2023-03-18T02:38:22;15.37;;;13.23;;
21215;SDS011;10765;50.954;5.322;2023-03-18T02:40:49;17.53;;;13.97;;
21215;SDS011;10765;50.954;5.322;2023-03-18T02:43:17;15.57;;;14.00;;
21215;SDS011;10765;50.954;5.322;2023-03-18T02:45:49;17.40;;;14.00;;
21215;SDS011;10765;50.954;5.322;2023-03-18T02:48:26;17.27;;;14.80;;
21215;SDS011;10765;50.954;5.322;2023-03-18T02:50:57;19.50;;;14.67;;
21215;SDS011;10765;50.954;5.322;2023-03-18T02:53:24;16.17;;;14.47;;
21215;SDS011;10765;50.954;5.322;2023-03-18T02:55:51;17.37;;;14.70;;
21215;SDS011;10765;50.954;5.322;2023-03-18T02:58:19;17.50;;;15.13;;
21215;SDS011;10765;50.954;5.322;2023-03-18T03:00:46;18.00;;;15.00;;
21215;SDS011;10765;50.954;5.322;2023-03-18T03:03:13;17.20;;;15.40;;
21215;SDS011;10765;50.954;5.322;2023-03-18T03:05:40;18.20;;;15.47;;
21215;SDS011;10765;50.954;5.322;2023-03-18T03:08:07;17.40;;;15.37;;
21215;SDS011;10765;50.954;5.322;2023-03-18T03:10:35;16.30;;;14.60;;
21215;SDS011;10765;50.954;5.322;2023-03-18T03:13:02;17.20;;;15.37;;
21215;SDS011;10765;50.954;5.322;2023-03-18T03:15:31;18.20;;;15.73;;
21215;SDS011;10765;50.954;5.322;2023-03-18T03:17:59;19.83;;;15.40;;
21215;SDS011;10765;50.954;5.322;2023-03-18T03:20:26;18.63;;;16.73;;
21215;SDS011;10765;50.954;5.322;2023-03-18T03:22:53;19.77;;;17.67;;
21215;SDS011;10765;50.954;5.322;2023-03-18T03:25:20;18.90;;;16.93;;
21215;SDS011;10765;50.954;5.322;2023-03-18T03:27:47;20.20;;;17.00;;
21215;SDS011;10765;50.954;5.322;2023-03-18T03:30:15;18.10;;;16.10;;
21215;SDS011;10765;50.954;5.322;2023-03-18T03:32:46;16.27;;;14.67;;
21215;SDS011;10765;50.954;5.322;2023-03-18T03:35:13;17.33;;;15.10;;
21215;SDS011;10765;50.954;5.322;2023-03-18T03:37:42;16.03;;;14.10;;
21215;SDS011;10765;50.954;5.322;2023-03-18T03:40:09;15.63;;;14.00;;
21215;SDS011;10765;50.954;5.322;2023-03-18T03:42:38;17.80;;;15.13;;
21215;SDS011;10765;50.954;5.322;2023-03-18T03:45:06;15.07;;;13.57;;
21215;SDS011;10765;50.954;5.322;2023-03-18T03:47:34;16.03;;;14.53;;
21215;SDS011;10765;50.954;5.322;2023-03-18T03:50:05;17.23;;;14.80;;
21215;SDS011;10765;50.954;5.322;2023-03-18T03:52:34;16.27;;;14.30;;
21215;SDS011;10765;50.954;5.322;2023-03-18T03:55:03;17.10;;;14.80;;
21215;SDS011;10765;50.954;5.322;2023-03-18T03:57:31;18.03;;;14.57;;
21215;SDS011;10765;50.954;5.322;2023-03-18T03:59:59;17.70;;;14.70;;
21215;SDS011;10765;50.954;5.322;2023-03-18T04:02:26;18.50;;;14.90;;
21215;SDS011;10765;50.954;5.322;2023-03-18T04:04:53;17.37;;;15.63;;
21215;SDS011;10765;50.954;5.322;2023-03-18T04:07:22;15.77;;;14.10;;
21215;SDS011;10765;50.954;5.322;2023-03-18T04:09:48;16.13;;;14.47;;
21215;SDS011;10765;50.954;5.322;2023-03-18T04:12:15;16.17;;;14.50;;
21215;SDS011;10765;50.954;5.322;2023-03-18T04:14:43;17.20;;;15.07;;
21215;SDS011;10765;50.954;5.322;2023-03-18T04:17:11;17.10;;;15.30;;
21215;SDS011;10765;50.954;5.322;2023-03-18T04:19:38;15.87;;;14.33;;
21215;SDS011;10765;50.954;5.322;2023-03-18T04:22:05;16.37;;;14.77;;
21215;SDS011;10765;50.954;5.322;2023-03-18T04:24:34;18.13;;;16.00;;
21215;SDS011;10765;50.954;5.322;2023-03-18T04:27:01;17.63;;;15.80;;
21215;SDS011;10765;50.954;5.322;2023-03-18T04:29:28;17.83;;;15.53;;
21215;SDS011;10765;50.954;5.322;2023-03-18T04:31:56;18.47;;;16.13;;
21215;SDS011;10765;50.954;5.322;2023-03-18T04:34:24;16.73;;;15.03;;
21215;SDS011;10765;50.954;5.322;2023-03-18T04:36:51;17.57;;;15.77;;
21215;SDS011;10765;50.954;5.322;2023-03-18T04:39:19;18.70;;;16.27;;
21215;SDS011;10765;50.954;5.322;2023-03-18T04:41:48;17.57;;;15.80;;
21215;SDS011;10765;50.954;5.322;2023-03-18T04:44:15;19.17;;;17.03;;
21215;SDS011;10765;50.954;5.322;2023-03-18T04:46:43;18.43;;;16.63;;
21215;SDS011;10765;50.954;5.322;2023-03-18T04:49:10;17.70;;;15.80;;
21215;SDS011;10765;50.954;5.322;2023-03-18T04:51:37;18.27;;;16.47;;
21215;SDS011;10765;50.954;5.322;2023-03-18T04:54:05;18.87;;;17.00;;
21215;SDS011;10765;50.954;5.322;2023-03-18T04:56:33;18.30;;;16.40;;
21215;SDS011;10765;50.954;5.322;2023-03-18T04:59:01;17.97;;;16.27;;
21215;SDS011;10765;50.954;5.322;2023-03-18T05:01:28;18.30;;;16.47;;
21215;SDS011;10765;50.954;5.322;2023-03-18T05:03:55;17.60;;;15.87;;
21215;SDS011;10765;50.954;5.322;2023-03-18T05:06:23;17.83;;;16.00;;
21215;SDS011;10765;50.954;5.322;2023-03-18T05:08:53;18.73;;;16.97;;
21215;SDS011;10765;50.954;5.322;2023-03-18T05:11:21;18.40;;;16.60;;
21215;SDS011;10765;50.954;5.322;2023-03-18T05:13:48;19.07;;;17.13;;
21215;SDS011;10765;50.954;5.322;2023-03-18T05:16:17;18.40;;;16.53;;
21215;SDS011;10765;50.954;5.322;2023-03-18T05:18:48;20.07;;;17.97;;
21215;SDS011;10765;50.954;5.322;2023-03-18T05:21:16;19.63;;;17.73;;
21215;SDS011;10765;50.954;5.322;2023-03-18T05:23:43;20.93;;;18.47;;
21215;SDS011;10765;50.954;5.322;2023-03-18T05:26:10;19.53;;;17.47;;
21215;SDS011;10765;50.954;5.322;2023-03-18T05:28:37;20.47;;;18.37;;
21215;SDS011;10765;50.954;5.322;2023-03-18T05:31:04;21.37;;;19.17;;
21215;SDS011;10765;50.954;5.322;2023-03-18T05:33:33;20.50;;;18.43;;
21215;SDS011;10765;50.954;5.322;2023-03-18T05:36:00;22.20;;;20.00;;
21215;SDS011;10765;50.954;5.322;2023-03-18T05:38:27;21.23;;;19.03;;
21215;SDS011;10765;50.954;5.322;2023-03-18T05:40:54;20.50;;;18.57;;
21215;SDS011;10765;50.954;5.322;2023-03-18T05:43:22;22.70;;;20.50;;
21215;SDS011;10765;50.954;5.322;2023-03-18T05:45:50;20.87;;;18.63;;
21215;SDS011;10765;50.954;5.322;2023-03-18T05:48:17;21.07;;;18.97;;
21215;SDS011;10765;50.954;5.322;2023-03-18T05:50:45;21.00;;;18.87;;
21215;SDS011;10765;50.954;5.322;2023-03-18T05:53:12;20.37;;;18.40;;
21215;SDS011;10765;50.954;5.322;2023-03-18T05:55:40;21.63;;;19.33;;
21215;SDS011;10765;50.954;5.322;2023-03-18T05:58:07;19.63;;;17.50;;
21215;SDS011;10765;50.954;5.322;2023-03-18T06:00:35;21.83;;;19.63;;
21215;SDS011;10765;50.954;5.322;2023-03-18T06:03:02;21.17;;;19.10;;
21215;SDS011;10765;50.954;5.322;2023-03-18T06:05:30;20.70;;;18.70;;
21215;SDS011;10765;50.954;5.322;2023-03-18T06:07:58;19.83;;;17.83;;
21215;SDS011;10765;50.954;5.322;2023-03-18T06:10:25;20.70;;;18.70;;
21215;SDS011;10765;50.954;5.322;2023-03-18T06:12:53;20.40;;;18.33;;
21215;SDS011;10765;50.954;5.322;2023-03-18T06:15:21;17.60;;;15.77;;
21215;SDS011;10765;50.954;5.322;2023-03-18T06:17:50;18.17;;;16.37;;
21215;SDS011;10765;50.954;5.322;2023-03-18T06:20:17;16.93;;;15.33;;
21215;SDS011;10765;50.954;5.322;2023-03-18T06:22:44;14.20;;;12.80;;
21215;SDS011;10765;50.954;5.322;2023-03-18T06:25:15;13.73;;;12.33;;
21215;SDS011;10765;50.954;5.322;2023-03-18T06:27:43;11.97;;;10.87;;
21215;SDS011;10765;50.954;5.322;2023-03-18T06:30:11;13.33;;;11.37;;
21215;SDS011;10765;50.954;5.322;2023-03-18T06:32:39;12.53;;;11.33;;
21215;SDS011;10765;50.954;5.322;2023-03-18T06:35:07;12.70;;;11.50;;
21215;SDS011;10765;50.954;5.322;2023-03-18T06:37:35;13.70;;;11.23;;
21215;SDS011;10765;50.954;5.322;2023-03-18T06:40:02;12.70;;;11.40;;
21215;SDS011;10765;50.954;5.322;2023-03-18T06:42:32;12.97;;;11.67;;
21215;SDS011;10765;50.954;5.322;2023-03-18T06:44:59;11.47;;;10.37;;
21215;SDS011;10765;50.954;5.322;2023-03-18T06:47:26;12.43;;;11.17;;
21215;SDS011;10765;50.954;5.322;2023-03-18T06:49:53;11.50;;;10.50;;
21215;SDS011;10765;50.954;5.322;2023-03-18T06:52:21;11.67;;;10.20;;
21215;SDS011;10765;50.954;5.322;2023-03-18T06:54:48;11.33;;;10.33;;
21215;SDS011;10765;50.954;5.322;2023-03-18T06:57:16;9.87;;;8.87;;
21215;SDS011;10765;50.954;5.322;2023-03-18T06:59:46;9.60;;;8.77;;
21215;SDS011;10765;50.954;5.322;2023-03-18T07:02:13;9.77;;;8.97;;
21215;SDS011;10765;50.954;5.322;2023-03-18T07:04:40;9.37;;;8.47;;
21215;SDS011;10765;50.954;5.322;2023-03-18T07:07:07;10.27;;;9.23;;
21215;SDS011;10765;50.954;5.322;2023-03-18T07:09:34;9.50;;;8.60;;
21215;SDS011;10765;50.954;5.322;2023-03-18T07:12:01;8.17;;;7.47;;
21215;SDS011;10765;50.954;5.322;2023-03-18T07:14:31;8.60;;;7.80;;
21215;SDS011;10765;50.954;5.322;2023-03-18T07:17:00;8.50;;;7.73;;
21215;SDS011;10765;50.954;5.322;2023-03-18T07:19:27;7.90;;;7.20;;
21215;SDS011;10765;50.954;5.322;2023-03-18T07:21:56;7.07;;;6.37;;
21215;SDS011;10765;50.954;5.322;2023-03-18T07:24:23;6.40;;;5.80;;
21215;SDS011;10765;50.954;5.322;2023-03-18T07:26:50;7.37;;;6.77;;
21215;SDS011;10765;50.954;5.322;2023-03-18T07:29:17;6.30;;;5.70;;
21215;SDS011;10765;50.954;5.322;2023-03-18T07:31:45;7.30;;;6.00;;
21215;SDS011;10765;50.954;5.322;2023-03-18T07:34:14;7.43;;;6.70;;
21215;SDS011;10765;50.954;5.322;2023-03-18T07:36:41;6.40;;;5.80;;
21215;SDS011;10765;50.954;5.322;2023-03-18T07:39:09;7.07;;;6.47;;
21215;SDS011;10765;50.954;5.322;2023-03-18T07:41:36;6.70;;;6.10;;
21215;SDS011;10765;50.954;5.322;2023-03-18T07:44:05;8.20;;;7.03;;
21215;SDS011;10765;50.954;5.322;2023-03-18T07:46:32;7.10;;;6.40;;
21215;SDS011;10765;50.954;5.322;2023-03-18T07:48:59;7.47;;;6.77;;
21215;SDS011;10765;50.954;5.322;2023-03-18T07:51:27;6.33;;;5.73;;
21215;SDS011;10765;50.954;5.322;2023-03-18T07:53:54;7.37;;;6.63;;
21215;SDS011;10765;50.954;5.322;2023-03-18T07:56:21;6.47;;;5.77;;
21215;SDS011;10765;50.954;5.322;2023-03-18T07:58:48;7.00;;;6.40;;
21215;SDS011;10765;50.954;5.322;2023-03-18T08:01:15;6.63;;;6.10;;
21215;SDS011;10765;50.954;5.322;2023-03-18T08:03:43;6.80;;;5.77;;
21215;SDS011;10765;50.954;5.322;2023-03-18T08:06:11;6.60;;;6.00;;
21215;SDS011;10765;50.954;5.322;2023-03-18T08:08:40;6.20;;;5.60;;
21215;SDS011;10765;50.954;5.322;2023-03-18T08:11:09;6.27;;;5.67;;
21215;SDS011;10765;50.954;5.322;2023-03-18T08:13:37;5.90;;;5.40;;
21215;SDS011;10765;50.954;5.322;2023-03-18T08:16:05;7.03;;;6.33;;
21215;SDS011;10765;50.954;5.322;2023-03-18T08:18:32;6.20;;;5.33;;
21215;SDS011;10765;50.954;5.322;2023-03-18T08:21:00;5.77;;;5.23;;
21215;SDS011;10765;50.954;5.322;2023-03-18T08:23:27;5.40;;;4.93;;
21215;SDS011;10765;50.954;5.322;2023-03-18T08:25:55;6.13;;;5.20;;
21215;SDS011;10765;50.954;5.322;2023-03-18T08:28:24;6.07;;;5.20;;
21215;SDS011;10765;50.954;5.322;2023-03-18T08:30:54;6.57;;;5.30;;
21215;SDS011;10765;50.954;5.322;2023-03-18T08:33:21;6.10;;;5.50;;
21215;SDS011;10765;50.954;5.322;2023-03-18T08:35:49;5.87;;;5.27;;
21215;SDS011;10765;50.954;5.322;2023-03-18T08:38:16;5.30;;;4.80;;
21215;SDS011;10765;50.954;5.322;2023-03-18T08:40:44;5.40;;;4.97;;
21215;SDS011;10765;50.954;5.322;2023-03-18T08:43:12;5.57;;;4.93;;
21215;SDS011;10765;50.954;5.322;2023-03-18T08:45:39;4.80;;;4.30;;
21215;SDS011;10765;50.954;5.322;2023-03-18T08:48:07;4.73;;;4.30;;
21215;SDS011;10765;50.954;5.322;2023-03-18T08:50:35;5.30;;;4.80;;
21215;SDS011;10765;50.954;5.322;2023-03-18T08:53:02;5.00;;;4.50;;
21215;SDS011;10765;50.954;5.322;2023-03-18T08:55:30;4.57;;;4.17;;
21215;SDS011;10765;50.954;5.322;2023-03-18T08:57:59;4.07;;;3.67;;
21215;SDS011;10765;50.954;5.322;2023-03-18T09:00:29;3.87;;;3.50;;
21215;SDS011;10765;50.954;5.322;2023-03-18T09:02:57;4.17;;;3.87;;
21215;SDS011;10765;50.954;5.322;2023-03-18T09:05:24;5.77;;;3.83;;
21215;SDS011;10765;50.954;5.322;2023-03-18T09:07:51;5.30;;;3.60;;
21215;SDS011;10765;50.954;5.322;2023-03-18T09:10:18;4.37;;;3.70;;
21215;SDS011;10765;50.954;5.322;2023-03-18T09:12:45;3.73;;;3.30;;
21215;SDS011;10765;50.954;5.322;2023-03-18T09:15:14;3.83;;;3.40;;
21215;SDS011;10765;50.954;5.322;2023-03-18T09:17:43;3.50;;;3.20;;
21215;SDS011;10765;50.954;5.322;2023-03-18T09:20:10;3.63;;;3.27;;
21215;SDS011;10765;50.954;5.322;2023-03-18T09:22:39;3.27;;;2.80;;
21215;SDS011;10765;50.954;5.322;2023-03-18T09:25:07;3.63;;;3.30;;
21215;SDS011;10765;50.954;5.322;2023-03-18T09:27:34;3.10;;;2.77;;
21215;SDS011;10765;50.954;5.322;2023-03-18T09:30:01;3.57;;;3.27;;
21215;SDS011;10765;50.954;5.322;2023-03-18T09:32:29;3.25;;;2.97;;
21215;SDS011;10765;50.954;5.322;2023-03-18T09:34:57;5.50;;;2.87;;
21215;SDS011;10765;50.954;5.322;2023-03-18T09:37:24;3.00;;;2.67;;
21215;SDS011;10765;50.954;5.322;2023-03-18T09:39:51;3.92;;;2.58;;
21215;SDS011;10765;50.954;5.322;2023-03-18T09:42:22;3.10;;;2.77;;
21215;SDS011;10765;50.954;5.322;2023-03-18T09:44:58;2.80;;;2.60;;
21215;SDS011;10765;50.954;5.322;2023-03-18T09:47:36;3.87;;;2.97;;
21215;SDS011;10765;50.954;5.322;2023-03-18T09:50:20;3.33;;;2.53;;
21215;SDS011;10765;50.954;5.322;2023-03-18T09:53:01;3.17;;;2.57;;
21215;SDS011;10765;50.954;5.322;2023-03-18T09:55:38;3.00;;;2.50;;
21215;SDS011;10765;50.954;5.322;2023-03-18T09:58:14;2.93;;;2.70;;
21215;SDS011;10765;50.954;5.322;2023-03-18T10:00:46;3.70;;;2.80;;
21215;SDS011;10765;50.954;5.322;2023-03-18T10:03:18;3.60;;;2.20;;
21215;SDS011;10765;50.954;5.322;2023-03-18T10:05:54;3.00;;;2.10;;
21215;SDS011;10765;50.954;5.322;2023-03-18T10:08:30;2.27;;;2.00;;
21215;SDS011;10765;50.954;5.322;2023-03-18T10:11:05;2.93;;;2.20;;
21215;SDS011;10765;50.954;5.322;2023-03-18T10:13:40;2.40;;;2.17;;
21215;SDS011;10765;50.954;5.322;2023-03-18T10:16:19;2.47;;;1.90;;
21215;SDS011;10765;50.954;5.322;2023-03-18T10:18:51;2.10;;;1.90;;
21215;SDS011;10765;50.954;5.322;2023-03-18T10:21:23;2.20;;;1.70;;
21215;SDS011;10765;50.954;5.322;2023-03-18T10:24:01;2.50;;;1.77;;
21215;SDS011;10765;50.954;5.322;2023-03-18T10:26:37;2.20;;;1.70;;
21215;SDS011;10765;50.954;5.322;2023-03-18T10:29:12;2.37;;;1.50;;
21215;SDS011;10765;50.954;5.322;2023-03-18T10:31:59;1.63;;;1.53;;
21215;SDS011;10765;50.954;5.322;2023-03-18T10:34:37;4.40;;;1.73;;
21215;SDS011;10765;50.954;5.322;2023-03-18T10:37:13;2.07;;;1.20;;
21215;SDS011;10765;50.954;5.322;2023-03-18T10:39:48;2.87;;;1.50;;
21215;SDS011;10765;50.954;5.322;2023-03-18T10:42:18;2.37;;;1.53;;
21215;SDS011;10765;50.954;5.322;2023-03-18T10:44:46;3.57;;;1.70;;
21215;SDS011;10765;50.954;5.322;2023-03-18T10:47:16;3.77;;;1.80;;
21215;SDS011;10765;50.954;5.322;2023-03-18T10:49:57;1.70;;;1.50;;
21215;SDS011;10765;50.954;5.322;2023-03-18T10:52:34;1.40;;;1.20;;
21215;SDS011;10765;50.954;5.322;2023-03-18T10:55:07;3.40;;;1.40;;
21215;SDS011;10765;50.954;5.322;2023-03-18T10:57:39;1.80;;;1.20;;
21215;SDS011;10765;50.954;5.322;2023-03-18T11:00:07;1.90;;;1.03;;
21215;SDS011;10765;50.954;5.322;2023-03-18T11:02:52;2.40;;;0.93;;
21215;SDS011;10765;50.954;5.322;2023-03-18T11:05:22;2.97;;;1.43;;
21215;SDS011;10765;50.954;5.322;2023-03-18T11:07:55;1.30;;;1.10;;
21215;SDS011;10765;50.954;5.322;2023-03-18T11:10:25;2.17;;;1.40;;
21215;SDS011;10765;50.954;5.322;2023-03-18T11:12:58;2.07;;;1.47;;
21215;SDS011;10765;50.954;5.322;2023-03-18T11:15:26;2.63;;;1.40;;
21215;SDS011;10765;50.954;5.322;2023-03-18T11:17:56;2.87;;;1.57;;
21215;SDS011;10765;50.954;5.322;2023-03-18T11:20:30;2.87;;;1.63;;
21215;SDS011;10765;50.954;5.322;2023-03-18T11:23:13;2.03;;;1.53;;
21215;SDS011;10765;50.954;5.322;2023-03-18T11:25:44;1.87;;;1.47;;
21215;SDS011;10765;50.954;5.322;2023-03-18T11:28:17;2.00;;;1.37;;
21215;SDS011;10765;50.954;5.322;2023-03-18T11:30:47;2.60;;;1.50;;
21215;SDS011;10765;50.954;5.322;2023-03-18T11:33:17;2.47;;;1.63;;
21215;SDS011;10765;50.954;5.322;2023-03-18T11:35:49;2.80;;;1.60;;
21215;SDS011;10765;50.954;5.322;2023-03-18T11:38:19;2.60;;;1.30;;
21215;SDS011;10765;50.954;5.322;2023-03-18T11:40:51;2.90;;;1.60;;
21215;SDS011;10765;50.954;5.322;2023-03-18T11:43:19;2.37;;;1.30;;
21215;SDS011;10765;50.954;5.322;2023-03-18T11:45:48;3.03;;;1.60;;
21215;SDS011;10765;50.954;5.322;2023-03-18T11:48:27;2.47;;;1.47;;
21215;SDS011;10765;50.954;5.322;2023-03-18T11:50:59;2.30;;;1.50;;
21215;SDS011;10765;50.954;5.322;2023-03-18T11:53:42;2.33;;;1.70;;
21215;SDS011;10765;50.954;5.322;2023-03-18T11:56:18;4.03;;;1.80;;
21215;SDS011;10765;50.954;5.322;2023-03-18T12:01:49;2.77;;;1.70;;
21215;SDS011;10765;50.954;5.322;2023-03-18T12:04:28;3.10;;;1.60;;
21215;SDS011;10765;50.954;5.322;2023-03-18T12:07:26;2.60;;;1.77;;
21215;SDS011;10765;50.954;5.322;2023-03-18T12:10:18;3.67;;;1.70;;
21215;SDS011;10765;50.954;5.322;2023-03-18T12:12:58;3.80;;;1.67;;
21215;SDS011;10765;50.954;5.322;2023-03-18T12:15:45;3.13;;;1.47;;
21215;SDS011;10765;50.954;5.322;2023-03-18T12:18:24;3.03;;;1.67;;
21215;SDS011;10765;50.954;5.322;2023-03-18T12:21:12;2.80;;;1.60;;
21215;SDS011;10765;50.954;5.322;2023-03-18T12:23:59;3.67;;;2.00;;
21215;SDS011;10765;50.954;5.322;2023-03-18T12:26:42;3.37;;;1.60;;
21215;SDS011;10765;50.954;5.322;2023-03-18T12:32:08;3.97;;;1.90;;
21215;SDS011;10765;50.954;5.322;2023-03-18T12:34:48;5.17;;;2.10;;
21215;SDS011;10765;50.954;5.322;2023-03-18T12:37:29;3.37;;;1.83;;
21215;SDS011;10765;50.954;5.322;2023-03-18T12:40:11;4.37;;;2.33;;
21215;SDS011;10765;50.954;5.322;2023-03-18T12:45:42;2.67;;;1.60;;
21215;SDS011;10765;50.954;5.322;2023-03-18T12:48:13;2.93;;;1.87;;
21215;SDS011;10765;50.954;5.322;2023-03-18T12:50:45;3.87;;;1.87;;
21215;SDS011;10765;50.954;5.322;2023-03-18T12:53:16;2.80;;;1.83;;
21215;SDS011;10765;50.954;5.322;2023-03-18T12:55:50;3.07;;;1.90;;
21215;SDS011;10765;50.954;5.322;2023-03-18T12:58:23;3.03;;;2.20;;
21215;SDS011;10765;50.954;5.322;2023-03-18T13:00:54;3.03;;;2.23;;
21215;SDS011;10765;50.954;5.322;2023-03-18T13:03:31;3.07;;;1.70;;
21215;SDS011;10765;50.954;5.322;2023-03-18T13:06:00;2.53;;;1.90;;
21215;SDS011;10765;50.954;5.322;2023-03-18T13:08:40;3.17;;;1.70;;
21215;SDS011;10765;50.954;5.322;2023-03-18T13:11:39;4.33;;;2.17;;
21215;SDS011;10765;50.954;5.322;2023-03-18T13:14:40;4.17;;;2.00;;
21215;SDS011;10765;50.954;5.322;2023-03-18T13:17:14;3.93;;;2.13;;
21215;SDS011;10765;50.954;5.322;2023-03-18T13:19:45;4.17;;;1.80;;
21215;SDS011;10765;50.954;5.322;2023-03-18T13:22:17;4.23;;;1.93;;
21215;SDS011;10765;50.954;5.322;2023-03-18T13:25:13;3.40;;;1.93;;
21215;SDS011;10765;50.954;5.322;2023-03-18T13:30:57;3.50;;;1.70;;
21215;SDS011;10765;50.954;5.322;2023-03-18T13:33:35;2.20;;;1.80;;
21215;SDS011;10765;50.954;5.322;2023-03-18T13:36:17;2.73;;;1.90;;
21215;SDS011;10765;50.954;5.322;2023-03-18T13:39:20;1.50;;;1.20;;
21215;SDS011;10765;50.954;5.322;2023-03-18T13:42:07;2.00;;;1.20;;
21215;SDS011;10765;50.954;5.322;2023-03-18T13:44:54;1.70;;;1.20;;
21215;SDS011;10765;50.954;5.322;2023-03-18T13:47:31;1.50;;;1.20;;
21215;SDS011;10765;50.954;5.322;2023-03-18T13:50:00;2.63;;;1.20;;
21215;SDS011;10765;50.954;5.322;2023-03-18T13:52:33;1.30;;;1.00;;
21215;SDS011;10765;50.954;5.322;2023-03-18T13:55:06;1.43;;;0.97;;
21215;SDS011;10765;50.954;5.322;2023-03-18T13:57:46;2.47;;;0.90;;
21215;SDS011;10765;50.954;5.322;2023-03-18T14:03:15;3.10;;;1.23;;
21215;SDS011;10765;50.954;5.322;2023-03-18T14:05:46;2.53;;;1.10;;
21215;SDS011;10765;50.954;5.322;2023-03-18T14:08:33;1.70;;;1.10;;
21215;SDS011;10765;50.954;5.322;2023-03-18T14:11:35;1.23;;;0.80;;
21215;SDS011;10765;50.954;5.322;2023-03-18T14:14:23;1.03;;;0.90;;
21215;SDS011;10765;50.954;5.322;2023-03-18T14:17:42;1.40;;;1.00;;
21215;SDS011;10765;50.954;5.322;2023-03-18T14:20:19;2.30;;;0.90;;
21215;SDS011;10765;50.954;5.322;2023-03-18T14:23:24;3.27;;;1.17;;
21215;SDS011;10765;50.954;5.322;2023-03-18T14:26:00;3.07;;;0.97;;
21215;SDS011;10765;50.954;5.322;2023-03-18T14:28:34;1.30;;;0.90;;
21215;SDS011;10765;50.954;5.322;2023-03-18T14:31:19;1.47;;;0.90;;
21215;SDS011;10765;50.954;5.322;2023-03-18T14:39:50;2.60;;;1.10;;
21215;SDS011;10765;50.954;5.322;2023-03-18T14:42:27;1.67;;;1.00;;
21215;SDS011;10765;50.954;5.322;2023-03-18T14:45:05;3.67;;;1.30;;
21215;SDS011;10765;50.954;5.322;2023-03-18T14:47:42;2.17;;;0.90;;
21215;SDS011;10765;50.954;5.322;2023-03-18T14:50:19;1.83;;;1.00;;
21215;SDS011;10765;50.954;5.322;2023-03-18T14:52:56;1.80;;;0.90;;
21215;SDS011;10765;50.954;5.322;2023-03-18T14:55:29;1.90;;;0.90;;
21215;SDS011;10765;50.954;5.322;2023-03-18T14:57:58;1.80;;;1.00;;
21215;SDS011;10765;50.954;5.322;2023-03-18T15:00:26;2.07;;;0.87;;
21215;SDS011;10765;50.954;5.322;2023-03-18T15:02:58;1.63;;;0.80;;
21215;SDS011;10765;50.954;5.322;2023-03-18T15:05:31;2.40;;;0.90;;
21215;SDS011;10765;50.954;5.322;2023-03-18T15:08:02;5.73;;;1.17;;
21215;SDS011;10765;50.954;5.322;2023-03-18T15:10:34;2.90;;;1.10;;
21215;SDS011;10765;50.954;5.322;2023-03-18T15:13:01;2.80;;;1.30;;
21215;SDS011;10765;50.954;5.322;2023-03-18T15:15:31;2.43;;;1.10;;
21215;SDS011;10765;50.954;5.322;2023-03-18T15:18:01;1.30;;;0.83;;
21215;SDS011;10765;50.954;5.322;2023-03-18T15:20:39;2.23;;;1.10;;